createdAt,value
2023-01-31T00:00:37.575Z,3.30
2023-01-31T00:03:08.286Z,3.40
2023-01-31T00:05:37.232Z,3.40
2023-01-31T00:08:05.442Z,3.30
2023-01-31T00:10:34.994Z,3.10
2023-01-31T00:13:03.052Z,3.00
2023-01-31T00:15:32.556Z,2.90
2023-01-31T00:18:00.569Z,2.80
2023-01-31T00:20:28.691Z,2.70
2023-01-31T00:22:56.707Z,2.50
2023-01-31T00:25:24.725Z,2.40
2023-01-31T00:27:52.697Z,2.30
2023-01-31T00:30:20.825Z,2.30
2023-01-31T00:32:50.149Z,2.20
2023-01-31T00:35:18.383Z,2.20
2023-01-31T00:37:46.411Z,2.10
2023-01-31T00:40:14.663Z,2.10
2023-01-31T00:42:43.733Z,2.20
2023-01-31T00:45:12.845Z,2.10
2023-01-31T00:47:40.799Z,2.00
2023-01-31T00:50:15.088Z,2.00
2023-01-31T00:52:43.401Z,1.90
2023-01-31T00:55:11.380Z,1.80
2023-01-31T00:57:39.350Z,1.80
2023-01-31T01:00:08.585Z,1.90
2023-01-31T01:02:36.566Z,1.90
2023-01-31T01:05:04.962Z,1.90
2023-01-31T01:07:34.772Z,1.80
2023-01-31T01:10:03.111Z,1.80
2023-01-31T01:12:31.084Z,1.80
2023-01-31T01:14:59.362Z,1.80
2023-01-31T01:17:27.346Z,1.80
2023-01-31T01:19:55.356Z,1.80
2023-01-31T01:22:23.304Z,1.80
2023-01-31T01:24:52.635Z,1.80
2023-01-31T01:27:20.659Z,1.80
2023-01-31T01:29:48.664Z,1.70
2023-01-31T01:32:16.783Z,1.80
2023-01-31T01:34:44.968Z,1.90
2023-01-31T01:37:20.077Z,2.00
2023-01-31T01:39:48.221Z,2.20
2023-01-31T01:42:19.736Z,2.30
2023-01-31T01:44:54.857Z,2.30
2023-01-31T01:47:32.966Z,2.30
2023-01-31T01:50:05.730Z,2.30
2023-01-31T01:52:39.023Z,2.20
2023-01-31T01:55:15.275Z,2.30
2023-01-31T01:57:47.427Z,2.20
2023-01-31T02:00:20.267Z,2.20
2023-01-31T02:02:50.032Z,2.20
2023-01-31T02:05:23.820Z,2.30
2023-01-31T02:07:52.104Z,2.30
2023-01-31T02:10:25.342Z,2.30
2023-01-31T02:12:54.803Z,2.30
2023-01-31T02:15:23.521Z,2.30
2023-01-31T02:17:51.774Z,2.20
2023-01-31T02:20:39.024Z,2.10
2023-01-31T02:23:26.179Z,2.00
2023-01-31T02:26:26.885Z,1.90
2023-01-31T02:29:28.958Z,1.80
2023-01-31T02:32:38.731Z,1.60
2023-01-31T02:35:13.972Z,1.50
2023-01-31T02:37:50.230Z,1.40
2023-01-31T02:40:24.094Z,1.30
2023-01-31T02:43:02.679Z,1.20
2023-01-31T02:45:39.186Z,1.10
2023-01-31T02:48:18.983Z,1.20
2023-01-31T02:50:53.746Z,1.20
2023-01-31T02:53:25.871Z,1.20
2023-01-31T02:56:18.327Z,1.20
2023-01-31T02:58:52.532Z,1.30
2023-01-31T03:01:25.424Z,1.40
2023-01-31T03:03:58.437Z,1.30
2023-01-31T03:06:54.678Z,1.30
2023-01-31T03:09:30.147Z,1.30
2023-01-31T03:12:05.812Z,1.30
2023-01-31T03:14:40.757Z,1.20
2023-01-31T03:17:33.544Z,1.20
2023-01-31T03:20:08.793Z,1.10
2023-01-31T03:22:40.184Z,1.00
2023-01-31T03:25:10.888Z,1.00
2023-01-31T03:27:40.384Z,1.00
2023-01-31T03:30:14.364Z,1.00
2023-01-31T03:32:46.593Z,0.90
2023-01-31T03:35:16.721Z,0.90
2023-01-31T03:37:50.413Z,0.90
2023-01-31T03:40:22.102Z,0.90
2023-01-31T03:42:57.502Z,1.00
2023-01-31T03:45:33.531Z,1.00
2023-01-31T03:48:03.992Z,1.00
2023-01-31T03:50:38.897Z,1.10
2023-01-31T03:53:11.363Z,1.10
2023-01-31T03:55:44.467Z,1.10
2023-01-31T03:58:14.780Z,1.10
2023-01-31T04:00:44.712Z,1.10
2023-01-31T04:03:17.665Z,1.10
2023-01-31T04:05:49.109Z,1.10
2023-01-31T04:08:17.420Z,1.10
2023-01-31T04:10:47.167Z,1.10
2023-01-31T04:13:15.150Z,1.10
2023-01-31T04:15:43.200Z,1.10
2023-01-31T04:18:11.118Z,1.10
2023-01-31T04:20:39.074Z,1.10
2023-01-31T04:23:08.598Z,1.10
2023-01-31T04:25:36.794Z,1.00
2023-01-31T04:28:05.030Z,1.00
2023-01-31T04:30:33.298Z,0.90
2023-01-31T04:33:01.303Z,0.90
2023-01-31T04:35:29.384Z,0.80
2023-01-31T04:37:57.413Z,0.80
2023-01-31T04:40:26.687Z,0.70
2023-01-31T04:42:55.224Z,0.70
2023-01-31T04:45:23.203Z,0.60
2023-01-31T04:47:51.199Z,0.60
2023-01-31T04:50:19.397Z,0.60
2023-01-31T04:52:50.828Z,0.50
2023-01-31T04:55:19.457Z,0.50
2023-01-31T04:57:48.948Z,0.50
2023-01-31T05:00:17.607Z,0.50
2023-01-31T05:02:45.922Z,0.40
2023-01-31T05:05:13.892Z,0.40
2023-01-31T05:07:42.953Z,0.30
2023-01-31T05:10:11.802Z,0.30
2023-01-31T05:12:40.045Z,0.30
2023-01-31T05:15:11.606Z,0.20
2023-01-31T05:17:40.008Z,0.20
2023-01-31T05:20:09.091Z,0.30
2023-01-31T05:22:37.366Z,0.30
2023-01-31T05:25:06.045Z,0.40
2023-01-31T05:27:34.042Z,0.40
2023-01-31T05:30:02.122Z,0.40
2023-01-31T05:32:31.581Z,0.30
2023-01-31T05:34:59.565Z,0.20
2023-01-31T05:37:27.765Z,0.20
2023-01-31T05:39:56.982Z,0.20
2023-01-31T05:42:25.126Z,0.20
2023-01-31T05:44:53.104Z,0.10
2023-01-31T05:47:21.074Z,0.10
2023-01-31T05:49:50.356Z,0.10
2023-01-31T05:52:18.355Z,0.10
2023-01-31T05:54:46.376Z,0.10
2023-01-31T05:57:15.308Z,0.20
2023-01-31T05:59:43.472Z,0.20
2023-01-31T06:02:12.354Z,0.30
2023-01-31T06:04:40.480Z,0.40
2023-01-31T06:07:09.878Z,0.40
2023-01-31T06:09:38.801Z,0.40
2023-01-31T06:12:07.537Z,0.40
2023-01-31T06:14:35.551Z,0.40
2023-01-31T06:17:04.080Z,0.30
2023-01-31T06:19:32.003Z,0.40
2023-01-31T06:21:59.970Z,0.40
2023-01-31T06:24:29.333Z,0.40
2023-01-31T06:26:57.372Z,0.40
2023-01-31T06:29:25.451Z,0.40
2023-01-31T06:31:53.916Z,0.40
2023-01-31T06:34:22.106Z,0.30
2023-01-31T06:36:50.114Z,0.20
2023-01-31T06:39:18.056Z,0.20
2023-01-31T06:41:47.436Z,0.20
2023-01-31T06:44:15.489Z,0.20
2023-01-31T06:46:43.528Z,0.20
2023-01-31T06:49:11.461Z,0.20
2023-01-31T06:51:39.514Z,0.20
2023-01-31T06:54:07.580Z,0.20
2023-01-31T06:56:35.652Z,0.20
2023-01-31T06:59:05.044Z,0.20
2023-01-31T07:01:33.199Z,0.20
2023-01-31T07:04:01.171Z,0.20
2023-01-31T07:06:29.289Z,0.30
2023-01-31T07:08:57.414Z,0.20
2023-01-31T07:11:25.417Z,0.20
2023-01-31T07:13:53.445Z,0.20
2023-01-31T07:16:25.477Z,0.20
2023-01-31T07:18:54.254Z,0.20
2023-01-31T07:21:22.676Z,0.30
2023-01-31T07:23:51.133Z,0.40
2023-01-31T07:26:19.220Z,0.40
2023-01-31T07:28:47.237Z,0.40
2023-01-31T07:31:15.892Z,0.40
2023-01-31T07:33:45.242Z,0.50
2023-01-31T07:36:15.701Z,0.50
2023-01-31T07:38:43.850Z,0.60
2023-01-31T07:41:12.590Z,0.70
2023-01-31T07:43:40.607Z,0.80
2023-01-31T07:46:11.268Z,0.90
2023-01-31T07:48:39.644Z,0.90
2023-01-31T07:51:09.687Z,1.00
2023-01-31T07:53:42.130Z,1.10
2023-01-31T07:56:11.994Z,1.20
2023-01-31T07:58:41.476Z,1.20
2023-01-31T08:01:31.897Z,1.30
2023-01-31T08:04:10.649Z,1.30
2023-01-31T08:06:48.474Z,1.40
2023-01-31T08:09:16.904Z,1.50
2023-01-31T08:11:45.996Z,1.50
2023-01-31T08:14:14.161Z,1.50
2023-01-31T08:16:42.214Z,1.50
2023-01-31T08:19:13.165Z,1.60
2023-01-31T08:21:41.212Z,1.60
2023-01-31T08:24:11.080Z,1.60
2023-01-31T08:26:39.173Z,1.60
2023-01-31T08:29:07.221Z,1.60
2023-01-31T08:31:35.495Z,1.70
2023-01-31T08:34:03.499Z,1.70
2023-01-31T08:36:33.057Z,1.70
2023-01-31T08:39:01.316Z,1.60
2023-01-31T08:41:31.675Z,1.70
2023-01-31T08:44:00.421Z,1.60
2023-01-31T08:46:33.025Z,1.60
2023-01-31T08:49:02.832Z,1.60
2023-01-31T08:51:31.518Z,1.60
2023-01-31T08:53:59.699Z,1.80
2023-01-31T08:56:28.181Z,1.80
2023-01-31T08:58:58.809Z,1.90
2023-01-31T09:01:27.178Z,2.00
2023-01-31T09:03:57.096Z,2.10
2023-01-31T09:06:27.452Z,2.20
2023-01-31T09:08:57.354Z,2.20
2023-01-31T09:11:27.764Z,2.20
2023-01-31T09:13:58.109Z,2.20
2023-01-31T09:16:26.394Z,2.10
2023-01-31T09:18:56.337Z,2.20
2023-01-31T09:21:25.286Z,2.30
2023-01-31T09:23:57.660Z,2.50
2023-01-31T09:26:25.920Z,2.50
2023-01-31T09:28:54.038Z,2.60
2023-01-31T09:31:23.564Z,2.70
2023-01-31T09:33:51.769Z,2.80
2023-01-31T09:36:22.172Z,2.80
2023-01-31T09:38:54.396Z,2.80
2023-01-31T09:41:29.813Z,2.70
2023-01-31T09:44:03.176Z,2.90
2023-01-31T09:46:37.552Z,2.90
2023-01-31T09:49:09.800Z,2.90
2023-01-31T09:51:40.344Z,2.80
2023-01-31T09:54:20.783Z,2.80
2023-01-31T09:56:58.644Z,2.90
2023-01-31T09:59:31.976Z,3.00
2023-01-31T10:02:12.382Z,2.80
2023-01-31T10:04:51.976Z,2.80
2023-01-31T10:07:26.996Z,2.80
2023-01-31T10:10:00.231Z,2.80
2023-01-31T10:12:34.448Z,2.90
2023-01-31T10:15:05.611Z,2.90
2023-01-31T10:17:39.518Z,2.90
2023-01-31T10:20:11.355Z,3.00
2023-01-31T10:22:44.238Z,3.10
2023-01-31T10:25:32.591Z,3.10
2023-01-31T10:28:05.260Z,3.20
2023-01-31T10:30:42.727Z,3.20
2023-01-31T10:33:23.389Z,3.20
2023-01-31T10:35:53.762Z,3.30
2023-01-31T10:38:27.789Z,3.40
2023-01-31T10:41:00.833Z,3.50
2023-01-31T10:43:40.458Z,3.50
2023-01-31T10:46:12.817Z,3.40
2023-01-31T10:48:47.315Z,3.50
2023-01-31T10:51:31.991Z,3.40
2023-01-31T10:54:15.882Z,3.40
2023-01-31T10:56:46.645Z,3.60
2023-01-31T10:59:22.857Z,3.50
2023-01-31T11:01:51.358Z,3.50
2023-01-31T11:04:27.327Z,3.50
2023-01-31T11:06:55.564Z,3.60
2023-01-31T11:09:25.553Z,3.60
2023-01-31T11:11:58.863Z,3.70
2023-01-31T11:14:27.167Z,3.80
2023-01-31T11:17:02.124Z,4.00
2023-01-31T11:19:38.439Z,3.90
2023-01-31T11:22:07.979Z,3.90
2023-01-31T11:24:41.317Z,3.90
2023-01-31T11:27:14.107Z,4.00
2023-01-31T11:29:49.688Z,4.10
2023-01-31T11:32:22.801Z,4.10
2023-01-31T11:35:00.128Z,4.10
2023-01-31T11:37:31.121Z,4.20
2023-01-31T11:40:02.506Z,4.10
2023-01-31T11:42:30.593Z,4.10
2023-01-31T11:45:01.587Z,4.20
2023-01-31T11:47:43.468Z,4.10
2023-01-31T11:50:21.356Z,4.20
2023-01-31T11:52:56.438Z,4.40
2023-01-31T11:55:25.008Z,4.40
2023-01-31T11:57:58.063Z,4.40
2023-01-31T12:00:28.834Z,4.40
2023-01-31T12:03:03.142Z,4.30
2023-01-31T12:05:38.760Z,4.30
2023-01-31T12:08:07.505Z,4.30
2023-01-31T12:10:42.673Z,4.40
2023-01-31T12:13:19.158Z,4.40
2023-01-31T12:15:55.467Z,4.30
2023-01-31T12:18:54.253Z,4.20
2023-01-31T12:21:35.988Z,4.20
2023-01-31T12:24:11.792Z,4.10
2023-01-31T12:26:48.812Z,4.10
2023-01-31T12:29:39.019Z,4.10
2023-01-31T12:32:17.321Z,4.10
2023-01-31T12:35:08.742Z,4.10
2023-01-31T12:37:47.830Z,4.10
2023-01-31T12:40:30.843Z,4.20
2023-01-31T12:43:02.327Z,4.10
2023-01-31T12:45:50.445Z,4.20
2023-01-31T12:48:44.446Z,4.20
2023-01-31T12:51:37.934Z,4.10
2023-01-31T12:54:25.056Z,4.20
2023-01-31T12:57:06.738Z,4.20
2023-01-31T12:59:45.654Z,4.30
2023-01-31T13:02:33.717Z,4.30
2023-01-31T13:05:09.483Z,4.30
2023-01-31T13:07:42.941Z,4.40
2023-01-31T13:10:25.806Z,4.40
2023-01-31T13:12:54.240Z,4.50
2023-01-31T13:15:31.104Z,4.60
2023-01-31T13:18:04.620Z,4.60
2023-01-31T13:20:37.393Z,4.60
2023-01-31T13:23:11.249Z,4.60
2023-01-31T13:25:44.509Z,4.60
2023-01-31T13:28:18.276Z,4.60
2023-01-31T13:30:51.969Z,4.60
2023-01-31T13:33:29.260Z,4.70
2023-01-31T13:36:04.558Z,4.70
2023-01-31T13:38:40.170Z,4.80
2023-01-31T13:41:18.269Z,4.90
2023-01-31T13:43:47.357Z,5.00
2023-01-31T13:46:19.514Z,5.00
2023-01-31T13:48:53.169Z,5.00
2023-01-31T13:51:26.286Z,4.90
2023-01-31T13:53:59.768Z,4.90
2023-01-31T13:56:33.058Z,4.80
2023-01-31T13:59:02.545Z,4.80
2023-01-31T14:01:33.928Z,4.80
2023-01-31T14:04:25.791Z,4.80
2023-01-31T14:07:25.107Z,4.80
2023-01-31T14:10:41.348Z,4.80
2023-01-31T14:13:42.696Z,4.80
2023-01-31T14:16:37.876Z,4.70
2023-01-31T14:19:07.178Z,4.60
2023-01-31T14:22:05.044Z,4.60
2023-01-31T14:25:16.076Z,4.50
2023-01-31T14:27:47.546Z,4.50
2023-01-31T14:30:36.104Z,4.40
2023-01-31T14:33:23.559Z,4.30
2023-01-31T14:36:12.162Z,4.20
2023-01-31T14:38:52.065Z,4.20
2023-01-31T14:41:31.243Z,4.10
2023-01-31T14:44:13.632Z,4.10
2023-01-31T14:47:08.487Z,4.10
2023-01-31T14:50:06.769Z,4.20
2023-01-31T14:53:01.096Z,4.10
2023-01-31T14:55:58.881Z,4.10
2023-01-31T14:58:31.375Z,4.20
2023-01-31T15:01:01.876Z,4.20
2023-01-31T15:03:33.014Z,4.20
2023-01-31T15:06:10.451Z,4.30
2023-01-31T15:08:47.102Z,4.30
2023-01-31T15:11:43.813Z,4.30
2023-01-31T15:14:36.040Z,4.30
2023-01-31T15:17:20.178Z,4.40
2023-01-31T15:20:02.246Z,4.40
2023-01-31T15:22:32.041Z,4.40
2023-01-31T15:25:07.477Z,4.50
2023-01-31T15:27:43.076Z,4.50
2023-01-31T15:30:18.443Z,4.50
2023-01-31T15:32:52.517Z,4.40
2023-01-31T15:35:25.043Z,4.40
2023-01-31T15:38:01.641Z,4.40
2023-01-31T15:40:30.165Z,4.50
2023-01-31T15:43:23.049Z,4.50
2023-01-31T15:45:52.793Z,4.50
2023-01-31T15:48:22.464Z,4.60
2023-01-31T15:50:52.003Z,4.50
2023-01-31T15:53:23.394Z,4.50
2023-01-31T15:55:54.341Z,4.50
2023-01-31T15:58:25.841Z,4.50
2023-01-31T16:00:55.803Z,4.50
2023-01-31T16:03:26.523Z,4.50
2023-01-31T16:05:57.198Z,4.40
2023-01-31T16:08:31.636Z,4.40
2023-01-31T16:11:00.752Z,4.40
2023-01-31T16:13:31.870Z,4.40
2023-01-31T16:16:00.559Z,4.40
2023-01-31T16:18:31.174Z,4.50
2023-01-31T16:21:27.698Z,4.50
2023-01-31T16:24:00.794Z,4.50
2023-01-31T16:26:33.772Z,4.50
2023-01-31T16:29:10.355Z,4.50
2023-01-31T16:31:47.357Z,4.50
2023-01-31T16:34:26.999Z,4.50
2023-01-31T16:37:02.258Z,4.50
2023-01-31T16:39:35.702Z,4.50
2023-01-31T16:42:07.013Z,4.50
2023-01-31T16:44:42.071Z,4.50
2023-01-31T16:47:32.391Z,4.50
2023-01-31T16:50:41.927Z,4.50
2023-01-31T16:53:26.346Z,4.50
2023-01-31T16:56:22.820Z,4.60
2023-01-31T16:58:54.185Z,4.60
2023-01-31T17:01:26.814Z,4.60
2023-01-31T17:04:07.813Z,4.60
2023-01-31T17:06:36.588Z,4.70
2023-01-31T17:09:07.375Z,4.70
2023-01-31T17:11:43.605Z,4.70
2023-01-31T17:14:11.943Z,4.70
2023-01-31T17:16:41.319Z,4.80
2023-01-31T17:19:09.379Z,4.90
2023-01-31T17:21:41.627Z,5.00
2023-01-31T17:24:14.456Z,4.90
2023-01-31T17:26:43.288Z,5.00
2023-01-31T17:29:12.006Z,4.90
2023-01-31T17:31:42.213Z,4.90
2023-01-31T17:34:14.393Z,5.00
2023-01-31T17:36:42.563Z,4.90
2023-01-31T17:39:10.562Z,5.00
2023-01-31T17:41:41.096Z,5.00
2023-01-31T17:44:13.832Z,5.00
2023-01-31T17:46:43.473Z,4.90
2023-01-31T17:49:11.483Z,5.00
2023-01-31T17:51:41.105Z,5.00
2023-01-31T17:54:10.244Z,5.00
2023-01-31T17:56:38.318Z,4.90
2023-01-31T17:59:08.302Z,5.00
2023-01-31T18:01:36.602Z,5.10
2023-01-31T18:04:06.242Z,5.10
2023-01-31T18:06:34.288Z,5.10
2023-01-31T18:09:03.856Z,5.10
2023-01-31T18:11:31.886Z,5.10
2023-01-31T18:14:00.052Z,5.10
2023-01-31T18:16:28.113Z,5.10
2023-01-31T18:18:56.752Z,5.10
2023-01-31T18:21:26.323Z,5.20
2023-01-31T18:23:57.227Z,5.20
2023-01-31T18:26:26.384Z,5.20
2023-01-31T18:28:57.193Z,5.30
2023-01-31T18:31:25.384Z,5.20
2023-01-31T18:33:53.529Z,5.20
2023-01-31T18:36:22.693Z,5.20
2023-01-31T18:38:52.287Z,5.20
2023-01-31T18:41:22.092Z,5.20
2023-01-31T18:43:50.231Z,5.20
2023-01-31T18:46:18.277Z,5.20
2023-01-31T18:48:46.490Z,5.10
2023-01-31T18:51:18.949Z,5.10
2023-01-31T18:53:48.170Z,5.10
2023-01-31T18:56:18.989Z,5.10
2023-01-31T18:58:49.308Z,5.20
2023-01-31T19:01:18.848Z,5.10
2023-01-31T19:03:50.047Z,5.20
2023-01-31T19:06:20.284Z,5.10
2023-01-31T19:08:49.148Z,5.10
2023-01-31T19:11:20.263Z,5.10
2023-01-31T19:13:48.777Z,5.10
2023-01-31T19:16:19.376Z,5.00
2023-01-31T19:18:47.771Z,5.00
2023-01-31T19:21:16.921Z,5.10
2023-01-31T19:23:45.520Z,5.00
2023-01-31T19:26:14.899Z,5.10
2023-01-31T19:28:44.947Z,5.10
2023-01-31T19:31:15.348Z,5.10
2023-01-31T19:33:43.777Z,5.10
2023-01-31T19:36:13.234Z,5.10
2023-01-31T19:38:41.778Z,5.10
2023-01-31T19:41:11.660Z,5.10
2023-01-31T19:43:43.106Z,5.10
2023-01-31T19:46:13.028Z,5.10
2023-01-31T19:48:41.030Z,5.10
2023-01-31T19:51:11.030Z,5.10
2023-01-31T19:53:39.278Z,5.10
2023-01-31T19:56:08.584Z,5.10
2023-01-31T19:58:36.919Z,5.00
2023-01-31T20:01:07.914Z,5.10
2023-01-31T20:03:37.575Z,5.10
2023-01-31T20:06:08.118Z,5.10
2023-01-31T20:08:36.607Z,5.10
2023-01-31T20:11:05.974Z,5.10
2023-01-31T20:13:33.952Z,5.10
2023-01-31T20:16:04.125Z,5.20
2023-01-31T20:18:32.703Z,5.20
2023-01-31T20:21:08.492Z,5.10
2023-01-31T20:23:36.893Z,5.10
2023-01-31T20:26:05.135Z,5.10
2023-01-31T20:28:35.157Z,5.10
2023-01-31T20:31:07.046Z,5.20
2023-01-31T20:33:35.580Z,5.20
2023-01-31T20:36:05.865Z,5.20
2023-01-31T20:38:34.078Z,5.20
2023-01-31T20:41:02.107Z,5.20
2023-01-31T20:43:30.105Z,5.30
2023-01-31T20:46:03.925Z,5.30
2023-01-31T20:48:32.013Z,5.30
2023-01-31T20:51:00.475Z,5.30
2023-01-31T20:53:30.008Z,5.30
2023-01-31T20:56:00.870Z,5.30
2023-01-31T20:58:30.768Z,5.30
2023-01-31T21:01:00.005Z,5.30
2023-01-31T21:03:28.709Z,5.30
2023-01-31T21:05:59.001Z,5.30
2023-01-31T21:08:27.526Z,5.20
2023-01-31T21:10:58.562Z,5.20
2023-01-31T21:13:28.952Z,5.20
2023-01-31T21:15:59.044Z,5.10
2023-01-31T21:18:29.072Z,5.10
2023-01-31T21:20:57.641Z,5.10
2023-01-31T21:23:25.832Z,5.10
2023-01-31T21:25:54.533Z,5.10
2023-01-31T21:28:27.302Z,5.00
2023-01-31T21:30:59.737Z,5.00
2023-01-31T21:33:28.118Z,4.90
2023-01-31T21:36:00.866Z,4.90
2023-01-31T21:38:28.941Z,4.90
2023-01-31T21:41:10.784Z,4.80
2023-01-31T21:43:41.418Z,4.80
2023-01-31T21:46:09.948Z,4.80
2023-01-31T21:48:38.249Z,4.70
2023-01-31T21:51:08.264Z,4.70
2023-01-31T21:53:36.692Z,4.80
2023-01-31T21:56:06.161Z,4.80
2023-01-31T21:58:36.506Z,4.80
2023-01-31T22:01:07.397Z,4.80
2023-01-31T22:03:36.241Z,4.90
2023-01-31T22:06:04.973Z,4.80
2023-01-31T22:08:35.459Z,4.80
2023-01-31T22:11:05.500Z,4.80
2023-01-31T22:13:35.566Z,4.80
2023-01-31T22:16:07.495Z,4.80
2023-01-31T22:18:36.140Z,4.70
2023-01-31T22:21:05.681Z,4.70
2023-01-31T22:23:38.548Z,4.70
2023-01-31T22:26:07.926Z,4.70
2023-01-31T22:28:36.236Z,4.70
2023-01-31T22:31:06.722Z,4.70
2023-01-31T22:33:36.609Z,4.70
2023-01-31T22:36:05.855Z,4.60
2023-01-31T22:38:34.143Z,4.60
2023-01-31T22:41:04.043Z,4.60
2023-01-31T22:43:32.789Z,4.60
2023-01-31T22:46:01.261Z,4.50
2023-01-31T22:48:31.060Z,4.50
2023-01-31T22:51:00.746Z,4.50
2023-01-31T22:53:31.299Z,4.50
2023-01-31T22:56:01.958Z,4.60
2023-01-31T22:58:30.113Z,4.60
2023-01-31T23:00:59.808Z,4.60
2023-01-31T23:03:31.983Z,4.60
2023-01-31T23:05:59.876Z,4.60
2023-01-31T23:08:27.840Z,4.70
2023-01-31T23:10:55.865Z,4.60
2023-01-31T23:13:23.890Z,4.60
2023-01-31T23:15:51.960Z,4.70
2023-01-31T23:18:24.999Z,4.60
2023-01-31T23:20:54.367Z,4.70
2023-01-31T23:23:22.381Z,4.60
2023-01-31T23:25:50.376Z,4.60
2023-01-31T23:28:18.338Z,4.60
2023-01-31T23:30:47.565Z,4.60
2023-01-31T23:33:15.535Z,4.60
2023-01-31T23:35:43.597Z,4.60
2023-01-31T23:38:12.917Z,4.60
2023-01-31T23:40:41.004Z,4.60
2023-01-31T23:43:08.992Z,4.60
2023-01-31T23:45:37.010Z,4.60
2023-01-31T23:48:05.503Z,4.60
2023-01-31T23:50:33.476Z,4.60
2023-01-31T23:53:01.494Z,4.70
2023-01-31T23:55:30.875Z,4.60
2023-01-31T23:57:58.860Z,4.70
